Terminal Aerodrome Forecast
Issued by NWS Tampa Bay Area, FL

Home | Current Version | Previous Version | Text Only | Print | Product List | Glossary On
Versions: 1 2 3 4 5 6 7 8 9 10 11 12 13 14
000
FTUS42 KTBW 231135
TAFFMY
TAF
KFMY 231135Z 2312/2412 12005KT P6SM FEW020 SCT100 BKN250
     FM231400 16009KT P6SM SCT030 BKN250
     FM231700 21011G17KT P6SM BKN050 OVC100
     FM232000 22012KT P6SM VCSH SCT020 BKN050
     FM240000 24009KT P6SM SCT020 BKN050
     FM240800 VRB05KT P6SM SCT015 BKN030=

USA.gov is the U.S. government's official web portal to all federal, state and local government web resources and services.